createdAt,value
2019-05-09T00:00:25.137Z,6.83
2019-05-09T00:02:54.751Z,7.13
2019-05-09T00:05:25.432Z,12.00
2019-05-09T00:07:55.203Z,5.93
2019-05-09T00:10:38.515Z,4.27
2019-05-09T00:12:56.225Z,8.53
2019-05-09T00:15:25.960Z,8.77
2019-05-09T00:17:55.580Z,7.77
2019-05-09T00:20:26.920Z,7.00
2019-05-09T00:22:56.549Z,5.47
2019-05-09T00:25:26.183Z,5.97
2019-05-09T00:27:55.843Z,5.60
2019-05-09T00:30:43.750Z,7.17
2019-05-09T00:33:15.012Z,6.17
2019-05-09T00:35:45.017Z,6.43
2019-05-09T00:38:14.615Z,7.33
2019-05-09T00:40:55.257Z,4.70
2019-05-09T00:43:16.105Z,7.13
2019-05-09T00:46:04.247Z,6.60
2019-05-09T00:48:50.814Z,8.10
2019-05-09T00:51:20.548Z,6.83
2019-05-09T00:53:50.258Z,6.33
2019-05-09T00:56:19.881Z,6.80
2019-05-09T00:58:49.550Z,7.30
2019-05-09T01:01:19.460Z,6.23
2019-05-09T01:03:49.094Z,7.50
2019-05-09T01:06:18.959Z,7.93
2019-05-09T01:08:48.580Z,10.50
2019-05-09T01:11:18.213Z,6.87
2019-05-09T01:13:47.879Z,8.80
2019-05-09T01:16:17.509Z,8.77
2019-05-09T01:18:47.120Z,5.77
2019-05-09T01:21:16.846Z,6.30
2019-05-09T01:23:46.453Z,7.53
2019-05-09T01:26:16.260Z,4.37
2019-05-09T01:28:47.788Z,6.10
2019-05-09T01:31:17.488Z,7.47
2019-05-09T01:33:54.964Z,5.10
2019-05-09T01:36:26.231Z,6.07
2019-05-09T01:38:56.687Z,8.77
2019-05-09T01:41:30.764Z,6.83
2019-05-09T01:43:57.689Z,9.43
2019-05-09T01:46:27.698Z,6.83
2019-05-09T01:48:57.360Z,8.03
2019-05-09T01:51:26.983Z,8.00
2019-05-09T01:53:56.616Z,6.80
2019-05-09T01:56:26.305Z,12.17
2019-05-09T01:58:55.935Z,5.53
2019-05-09T02:01:25.551Z,7.17
2019-05-09T02:03:55.289Z,5.47
2019-05-09T02:06:25.211Z,7.33
2019-05-09T02:08:54.842Z,8.00
2019-05-09T02:11:38.432Z,7.47
2019-05-09T02:13:56.086Z,7.63
2019-05-09T02:16:37.139Z,6.43
2019-05-09T02:19:08.421Z,5.93
2019-05-09T02:21:43.568Z,6.97
2019-05-09T02:24:14.219Z,7.57
2019-05-09T02:26:44.064Z,10.90
2019-05-09T02:29:14.003Z,13.30
2019-05-09T02:31:44.730Z,12.60
2019-05-09T02:34:15.171Z,11.77
2019-05-09T02:36:45.074Z,10.50
2019-05-09T02:39:14.764Z,12.07
2019-05-09T02:41:59.804Z,11.57
2019-05-09T02:44:15.746Z,9.40
2019-05-09T02:46:59.118Z,8.23
2019-05-09T02:49:29.126Z,8.60
2019-05-09T02:51:59.629Z,8.03
2019-05-09T02:54:30.175Z,5.43
2019-05-09T02:56:59.853Z,6.60
2019-05-09T02:59:34.003Z,10.07
2019-05-09T03:02:14.240Z,5.63
2019-05-09T03:04:43.878Z,5.10
2019-05-09T03:07:13.486Z,8.33
2019-05-09T03:09:43.144Z,6.30
2019-05-09T03:12:26.734Z,10.00
2019-05-09T03:14:44.159Z,6.03
2019-05-09T03:17:13.966Z,6.87
2019-05-09T03:19:43.634Z,6.43
2019-05-09T03:22:18.741Z,5.30
2019-05-09T03:24:48.855Z,7.33
2019-05-09T03:27:21.991Z,6.47
2019-05-09T03:29:53.254Z,6.53
2019-05-09T03:32:23.026Z,6.80
2019-05-09T03:34:52.656Z,7.77
2019-05-09T03:37:22.285Z,7.30
2019-05-09T03:39:52.008Z,6.97
2019-05-09T03:42:36.461Z,4.73
2019-05-09T03:44:54.362Z,4.83
2019-05-09T03:47:27.599Z,8.17
2019-05-09T03:50:10.764Z,8.33
2019-05-09T03:52:40.496Z,5.87
2019-05-09T03:55:12.388Z,9.60
2019-05-09T03:57:47.657Z,7.87
2019-05-09T04:00:18.110Z,7.70
2019-05-09T04:02:48.539Z,8.17
2019-05-09T04:05:18.303Z,7.70
2019-05-09T04:07:48.594Z,5.83
2019-05-09T04:10:18.918Z,6.20
2019-05-09T04:12:56.245Z,7.27
2019-05-09T04:15:20.199Z,105.23
2019-05-09T04:17:49.829Z,36.87
2019-05-09T04:20:19.540Z,42.47
2019-05-09T04:22:49.326Z,10.57
2019-05-09T04:25:21.200Z,11.37
2019-05-09T04:27:52.504Z,9.73
2019-05-09T04:30:22.192Z,5.60
2019-05-09T04:32:51.813Z,7.27
2019-05-09T04:35:21.570Z,9.47
2019-05-09T04:37:51.210Z,17.43
2019-05-09T04:40:20.850Z,17.53
2019-05-09T04:42:50.515Z,11.13
2019-05-09T04:45:24.442Z,5.93
2019-05-09T04:47:57.742Z,8.17
2019-05-09T04:50:27.999Z,6.33
2019-05-09T04:52:58.272Z,11.87
2019-05-09T04:55:29.541Z,4.83
2019-05-09T04:58:00.167Z,4.53
2019-05-09T05:00:48.054Z,9.90
2019-05-09T05:03:18.388Z,6.23
2019-05-09T05:05:48.277Z,16.57
2019-05-09T05:08:18.276Z,14.03
2019-05-09T05:10:47.958Z,6.30
2019-05-09T05:13:26.453Z,11.97
2019-05-09T05:15:48.907Z,9.20
2019-05-09T05:18:20.312Z,8.07
2019-05-09T05:20:49.974Z,4.67
2019-05-09T05:23:21.258Z,7.33
2019-05-09T05:25:50.966Z,7.03
2019-05-09T05:28:20.614Z,25.90
2019-05-09T05:30:50.241Z,6.57
2019-05-09T05:33:39.603Z,9.17
2019-05-09T05:36:10.859Z,6.60
2019-05-09T05:38:40.661Z,8.40
2019-05-09T05:41:11.293Z,9.37
2019-05-09T05:43:44.735Z,11.57
2019-05-09T05:46:30.571Z,9.73
2019-05-09T05:49:00.341Z,12.53
2019-05-09T05:51:31.749Z,9.57
2019-05-09T05:54:01.888Z,5.77
2019-05-09T05:56:31.514Z,190.03
2019-05-09T05:59:01.236Z,99.60
2019-05-09T06:01:31.294Z,6.43
2019-05-09T06:04:00.947Z,8.17
2019-05-09T06:06:37.512Z,6.97
2019-05-09T06:09:08.470Z,7.47
2019-05-09T06:11:38.474Z,18.27
2019-05-09T06:14:11.603Z,12.30
2019-05-09T06:16:39.739Z,6.23
2019-05-09T06:19:18.009Z,7.30
2019-05-09T06:21:52.203Z,5.67
2019-05-09T06:24:20.443Z,6.90
2019-05-09T06:26:50.288Z,99.80
2019-05-09T06:29:20.563Z,13.07
2019-05-09T06:31:50.282Z,13.70
2019-05-09T06:34:19.931Z,20.50
2019-05-09T06:36:49.691Z,9.73
2019-05-09T06:39:19.408Z,15.17
2019-05-09T06:41:49.042Z,7.40
2019-05-09T06:44:32.977Z,12.03
2019-05-09T06:47:04.287Z,11.30
2019-05-09T06:49:41.300Z,8.90
2019-05-09T06:52:11.020Z,8.83
2019-05-09T06:54:41.927Z,9.47
2019-05-09T06:57:11.871Z,7.90
2019-05-09T06:59:41.503Z,14.37
2019-05-09T07:02:19.066Z,12.07
2019-05-09T07:04:50.345Z,9.13
2019-05-09T07:07:21.635Z,9.47
2019-05-09T07:09:53.091Z,7.10
2019-05-09T07:12:23.043Z,8.23
2019-05-09T07:14:52.720Z,8.77
2019-05-09T07:17:22.776Z,9.87
2019-05-09T07:19:52.418Z,13.03
2019-05-09T07:22:28.089Z,11.47
2019-05-09T07:25:06.770Z,8.03
2019-05-09T07:27:32.795Z,8.57
2019-05-09T07:30:07.693Z,11.20
2019-05-09T07:32:39.159Z,13.70
2019-05-09T07:35:09.771Z,10.43
2019-05-09T07:37:39.458Z,13.90
2019-05-09T07:40:09.155Z,11.27
2019-05-09T07:42:39.723Z,10.23
2019-05-09T07:45:09.675Z,20.27
2019-05-09T07:47:39.317Z,25.53
2019-05-09T07:50:09.122Z,16.07
2019-05-09T07:52:39.052Z,11.13
2019-05-09T07:55:09.123Z,10.57
2019-05-09T07:57:46.407Z,11.70
2019-05-09T08:00:11.652Z,11.43
2019-05-09T08:02:41.779Z,11.10
2019-05-09T08:05:17.425Z,6.77
2019-05-09T08:07:48.559Z,10.03
2019-05-09T08:10:18.371Z,10.53
2019-05-09T08:12:48.168Z,8.87
2019-05-09T08:15:20.318Z,8.13
2019-05-09T08:17:49.837Z,11.60
2019-05-09T08:20:20.843Z,17.23
2019-05-09T08:22:57.923Z,7.60
2019-05-09T08:25:22.136Z,9.27
2019-05-09T08:27:52.350Z,9.20
2019-05-09T08:30:22.386Z,8.17
2019-05-09T08:32:52.158Z,8.63
2019-05-09T08:35:21.888Z,11.87
2019-05-09T08:37:51.682Z,12.63
2019-05-09T08:40:23.067Z,10.77
2019-05-09T08:42:52.800Z,8.50
2019-05-09T08:45:27.756Z,8.70
2019-05-09T08:47:54.203Z,7.57
2019-05-09T08:50:38.939Z,12.83
2019-05-09T08:53:09.253Z,8.87
2019-05-09T08:55:47.354Z,17.23
2019-05-09T08:58:14.637Z,7.23
2019-05-09T09:00:44.760Z,10.23
2019-05-09T09:03:15.095Z,11.50
2019-05-09T09:05:44.847Z,8.07
2019-05-09T09:08:14.626Z,9.00
2019-05-09T09:10:44.412Z,12.13
2019-05-09T09:13:14.118Z,14.67
2019-05-09T09:16:05.458Z,10.27
2019-05-09T09:18:17.851Z,9.70
2019-05-09T09:20:48.609Z,12.43
2019-05-09T09:23:19.339Z,9.50
2019-05-09T09:25:49.067Z,11.83
2019-05-09T09:28:18.980Z,9.90
2019-05-09T09:30:51.609Z,9.27
2019-05-09T09:33:21.305Z,12.57
2019-05-09T09:35:50.992Z,9.47
2019-05-09T09:38:20.809Z,10.50
2019-05-09T09:40:50.498Z,7.33
2019-05-09T09:43:20.203Z,7.73
2019-05-09T09:46:06.222Z,11.60
2019-05-09T09:48:21.212Z,6.77
2019-05-09T09:50:51.872Z,11.17
2019-05-09T09:53:23.211Z,7.03
2019-05-09T09:55:52.907Z,12.40
2019-05-09T09:58:22.794Z,15.43
2019-05-09T10:01:09.248Z,25.73
2019-05-09T10:03:40.006Z,9.90
2019-05-09T10:06:09.699Z,10.07
2019-05-09T10:08:40.329Z,14.73
2019-05-09T10:11:10.407Z,10.30
2019-05-09T10:13:40.110Z,11.80
2019-05-09T10:16:29.215Z,8.43
2019-05-09T10:18:57.853Z,8.57
2019-05-09T10:21:35.147Z,13.30
2019-05-09T10:24:07.461Z,6.70
2019-05-09T10:26:39.082Z,10.73
2019-05-09T10:29:08.935Z,16.33
2019-05-09T10:31:39.310Z,11.10
2019-05-09T10:34:12.197Z,9.43
2019-05-09T10:36:41.905Z,9.63
2019-05-09T10:39:11.583Z,8.73
2019-05-09T10:41:41.296Z,11.40
2019-05-09T10:44:18.159Z,10.63
2019-05-09T10:46:57.173Z,7.23
2019-05-09T10:49:20.989Z,8.47
2019-05-09T10:51:51.212Z,14.10
2019-05-09T10:54:21.000Z,8.37
2019-05-09T10:56:50.705Z,7.97
2019-05-09T10:59:20.448Z,8.37
2019-05-09T11:01:50.291Z,9.57
2019-05-09T11:04:21.598Z,10.80
2019-05-09T11:06:51.304Z,10.77
2019-05-09T11:09:21.045Z,11.47
2019-05-09T11:11:52.303Z,8.37
2019-05-09T11:14:36.155Z,5.77
2019-05-09T11:17:06.671Z,8.73
2019-05-09T11:19:24.868Z,10.83
2019-05-09T11:21:54.789Z,8.97
2019-05-09T11:24:40.529Z,9.73
2019-05-09T11:26:58.701Z,7.60
2019-05-09T11:29:29.219Z,9.97
2019-05-09T11:31:58.921Z,11.03
2019-05-09T11:34:28.570Z,7.77
2019-05-09T11:36:58.334Z,8.07
2019-05-09T11:39:36.602Z,8.03
2019-05-09T11:41:59.461Z,8.67
2019-05-09T11:44:29.210Z,8.47
2019-05-09T11:46:59.501Z,11.40
2019-05-09T11:49:29.615Z,6.47
2019-05-09T11:51:59.583Z,14.40
2019-05-09T11:54:32.985Z,8.40
2019-05-09T11:57:02.686Z,12.90
2019-05-09T11:59:32.554Z,8.50
2019-05-09T12:02:02.489Z,8.83
2019-05-09T12:04:32.748Z,10.83
2019-05-09T12:07:02.664Z,8.43
2019-05-09T12:09:48.938Z,10.17
2019-05-09T12:12:19.742Z,8.57
2019-05-09T12:14:49.732Z,8.70
2019-05-09T12:17:19.887Z,12.97
2019-05-09T12:19:49.734Z,14.00
2019-05-09T12:22:20.936Z,15.63
2019-05-09T12:24:53.755Z,13.93
2019-05-09T12:27:22.253Z,11.63
2019-05-09T12:29:51.830Z,8.10
2019-05-09T12:32:46.739Z,11.57
2019-05-09T12:34:57.822Z,10.87
2019-05-09T12:37:28.217Z,9.00
2019-05-09T12:39:58.684Z,12.00
2019-05-09T12:42:29.373Z,7.57
2019-05-09T12:45:02.034Z,9.97
2019-05-09T12:47:33.320Z,9.50
2019-05-09T12:50:03.288Z,19.17
2019-05-09T12:52:33.075Z,8.53
2019-05-09T12:55:02.779Z,8.27
2019-05-09T12:57:32.960Z,12.40
2019-05-09T13:00:02.931Z,11.07
2019-05-09T13:02:33.846Z,7.40
2019-05-09T13:05:04.683Z,8.23
2019-05-09T13:07:34.428Z,8.60
2019-05-09T13:10:05.298Z,11.23
2019-05-09T13:12:38.559Z,17.07
2019-05-09T13:15:08.917Z,8.40
2019-05-09T13:17:43.252Z,11.03
2019-05-09T13:20:14.490Z,9.10
2019-05-09T13:22:47.728Z,8.07
2019-05-09T13:25:18.856Z,14.77
2019-05-09T13:27:52.535Z,11.30
2019-05-09T13:30:20.002Z,9.37
2019-05-09T13:32:50.273Z,10.77
2019-05-09T13:35:20.240Z,6.70
2019-05-09T13:37:50.501Z,9.53
2019-05-09T13:40:20.414Z,9.73
2019-05-09T13:42:50.212Z,12.57
2019-05-09T13:45:20.257Z,6.10
2019-05-09T13:47:49.963Z,7.57
2019-05-09T13:50:19.589Z,7.67
2019-05-09T13:52:49.694Z,12.60
2019-05-09T13:55:19.467Z,9.43
2019-05-09T13:57:49.212Z,6.23
2019-05-09T14:00:19.427Z,11.00
2019-05-09T14:02:49.539Z,8.80
2019-05-09T14:05:19.445Z,6.77
2019-05-09T14:07:53.859Z,9.83
2019-05-09T14:10:20.654Z,8.33
2019-05-09T14:13:05.856Z,9.10
2019-05-09T14:15:22.240Z,12.97
2019-05-09T14:17:53.892Z,10.97
2019-05-09T14:20:23.358Z,8.17
2019-05-09T14:22:53.361Z,11.63
2019-05-09T14:25:23.264Z,13.10
2019-05-09T14:27:52.907Z,17.50
2019-05-09T14:30:22.696Z,13.73
2019-05-09T14:32:52.550Z,14.07
2019-05-09T14:35:22.239Z,9.83
2019-05-09T14:37:51.872Z,16.00
2019-05-09T14:40:21.718Z,9.27
2019-05-09T14:42:51.427Z,10.53
2019-05-09T14:45:21.185Z,9.67
2019-05-09T14:47:50.923Z,8.43
2019-05-09T14:50:20.581Z,7.20
2019-05-09T14:52:50.747Z,7.23
2019-05-09T14:55:20.503Z,8.43
2019-05-09T14:57:50.249Z,9.80
2019-05-09T15:00:20.287Z,9.90
2019-05-09T15:02:49.965Z,7.63
2019-05-09T15:05:19.893Z,11.60
2019-05-09T15:07:49.529Z,10.37
2019-05-09T15:10:19.299Z,8.10
2019-05-09T15:12:49.061Z,6.27
2019-05-09T15:15:19.013Z,8.77
2019-05-09T15:17:49.540Z,9.13
2019-05-09T15:20:19.791Z,8.60
2019-05-09T15:22:49.533Z,5.23
2019-05-09T15:25:20.816Z,8.13
2019-05-09T15:27:50.940Z,6.23
2019-05-09T15:30:21.310Z,18.87
2019-05-09T15:32:52.034Z,8.70
2019-05-09T15:35:22.337Z,7.33
2019-05-09T15:37:51.997Z,7.20
2019-05-09T15:40:21.955Z,5.37
2019-05-09T15:42:52.336Z,5.80
2019-05-09T15:45:22.408Z,6.00
2019-05-09T15:47:52.083Z,7.23
2019-05-09T15:50:23.286Z,5.83
2019-05-09T15:52:53.700Z,7.80
2019-05-09T15:55:23.481Z,5.87
2019-05-09T15:57:53.183Z,5.20
2019-05-09T16:00:22.895Z,6.40
2019-05-09T16:02:53.248Z,6.00
2019-05-09T16:05:24.899Z,6.27
2019-05-09T16:07:54.569Z,6.60
2019-05-09T16:10:24.266Z,12.37
2019-05-09T16:12:54.897Z,6.83
2019-05-09T16:15:24.665Z,6.13
2019-05-09T16:17:54.361Z,6.50
2019-05-09T16:20:37.074Z,5.90
2019-05-09T16:22:57.203Z,6.27
2019-05-09T16:25:28.275Z,7.70
2019-05-09T16:27:59.963Z,7.57
2019-05-09T16:30:29.667Z,8.50
2019-05-09T16:32:59.335Z,8.63
2019-05-09T16:35:29.006Z,6.73
2019-05-09T16:38:06.429Z,6.20
2019-05-09T16:40:30.925Z,10.47
2019-05-09T16:43:00.590Z,63.20
2019-05-09T16:45:30.215Z,11.43
2019-05-09T16:48:02.333Z,9.70
2019-05-09T16:50:32.096Z,22.97
2019-05-09T16:53:01.825Z,14.70
2019-05-09T16:55:37.970Z,13.77
2019-05-09T16:58:08.613Z,8.00
2019-05-09T17:00:41.366Z,9.40
2019-05-09T17:03:11.010Z,11.63
2019-05-09T17:05:40.793Z,12.53
2019-05-09T17:08:10.526Z,14.37
2019-05-09T17:10:40.168Z,15.40
2019-05-09T17:13:09.877Z,18.60
2019-05-09T17:15:39.595Z,19.87
2019-05-09T17:18:10.088Z,25.33
2019-05-09T17:20:41.489Z,38.57
2019-05-09T17:23:15.087Z,26.50
2019-05-09T17:25:47.923Z,16.63
2019-05-09T17:28:17.966Z,15.57
2019-05-09T17:30:49.307Z,16.87
2019-05-09T17:33:19.614Z,16.73
2019-05-09T17:35:49.429Z,16.20
2019-05-09T17:38:19.107Z,13.50
2019-05-09T17:40:48.762Z,14.70
2019-05-09T17:43:18.983Z,12.57
2019-05-09T17:45:49.422Z,11.63
2019-05-09T17:48:19.055Z,93.63
2019-05-09T17:50:48.706Z,17.47
2019-05-09T17:53:18.495Z,21.00
2019-05-09T17:55:49.645Z,18.77
2019-05-09T17:58:29.777Z,17.27
2019-05-09T18:00:50.688Z,16.73
2019-05-09T18:03:20.602Z,16.27
2019-05-09T18:05:50.714Z,13.17
2019-05-09T18:08:21.475Z,13.23
2019-05-09T18:10:51.190Z,13.57
2019-05-09T18:13:23.895Z,13.97
2019-05-09T18:15:52.293Z,14.50
2019-05-09T18:18:21.922Z,13.53
2019-05-09T18:20:51.580Z,13.70
2019-05-09T18:23:21.435Z,15.13
2019-05-09T18:25:51.068Z,17.70
2019-05-09T18:28:20.852Z,90.87
2019-05-09T18:30:50.620Z,166.07
2019-05-09T18:33:30.704Z,135.23
2019-05-09T18:36:00.401Z,68.50
2019-05-09T18:38:32.927Z,34.77
2019-05-09T18:41:06.444Z,35.27
2019-05-09T18:43:34.329Z,44.13
2019-05-09T18:46:03.981Z,76.07
2019-05-09T18:48:34.841Z,75.10
2019-05-09T18:51:04.911Z,44.70
2019-05-09T18:53:35.514Z,30.23
2019-05-09T18:56:05.561Z,25.30
2019-05-09T18:58:36.070Z,20.30
2019-05-09T19:01:06.837Z,20.63
2019-05-09T19:03:37.148Z,22.50
2019-05-09T19:06:06.926Z,21.50
2019-05-09T19:08:37.361Z,29.63
2019-05-09T19:11:07.064Z,33.60
2019-05-09T19:13:36.817Z,20.27
2019-05-09T19:16:14.118Z,19.70
2019-05-09T19:18:48.355Z,19.07
2019-05-09T19:21:19.661Z,18.97
2019-05-09T19:23:49.292Z,17.53
2019-05-09T19:26:37.295Z,17.67
2019-05-09T19:29:09.405Z,18.57
2019-05-09T19:31:39.785Z,17.10
2019-05-09T19:34:12.681Z,17.43
2019-05-09T19:36:42.902Z,16.53
2019-05-09T19:39:12.703Z,16.50
2019-05-09T19:41:42.389Z,17.90
2019-05-09T19:44:12.025Z,23.60
2019-05-09T19:46:41.715Z,36.50
2019-05-09T19:49:11.540Z,22.07
2019-05-09T19:51:41.347Z,18.23
2019-05-09T19:54:11.372Z,18.43
2019-05-09T19:56:41.057Z,19.27
2019-05-09T19:59:11.362Z,19.10
2019-05-09T20:01:41.004Z,19.93
2019-05-09T20:04:10.795Z,19.23
2019-05-09T20:06:40.428Z,22.57
2019-05-09T20:09:11.781Z,20.97
2019-05-09T20:11:43.067Z,20.67
2019-05-09T20:14:23.267Z,20.47
2019-05-09T20:16:55.918Z,21.70
2019-05-09T20:19:25.875Z,23.10
2019-05-09T20:21:57.156Z,24.10
2019-05-09T20:24:26.891Z,23.17
2019-05-09T20:26:56.647Z,23.60
2019-05-09T20:29:26.361Z,24.20
2019-05-09T20:31:57.179Z,25.10
2019-05-09T20:34:26.818Z,26.40
2019-05-09T20:36:56.450Z,27.97
2019-05-09T20:39:26.342Z,27.43
2019-05-09T20:41:56.216Z,28.87
2019-05-09T20:44:26.060Z,31.17
2019-05-09T20:46:55.964Z,32.60
2019-05-09T20:49:25.818Z,32.70
2019-05-09T20:51:55.736Z,34.37
2019-05-09T20:54:25.606Z,35.07
2019-05-09T20:56:55.455Z,36.67
2019-05-09T20:59:25.325Z,35.07
2019-05-09T21:01:55.305Z,34.87
2019-05-09T21:04:25.123Z,32.27
2019-05-09T21:06:55.053Z,29.33
2019-05-09T21:09:24.915Z,29.97
2019-05-09T21:11:55.527Z,29.27
2019-05-09T21:14:25.394Z,27.23
2019-05-09T21:16:55.323Z,26.50
2019-05-09T21:19:25.141Z,24.73
2019-05-09T21:21:54.990Z,25.50
2019-05-09T21:24:25.673Z,25.73
2019-05-09T21:26:55.503Z,26.80
2019-05-09T21:29:26.485Z,28.50
2019-05-09T21:31:56.734Z,27.73
2019-05-09T21:34:27.325Z,25.83
2019-05-09T21:36:57.061Z,26.47
2019-05-09T21:39:27.024Z,27.43
2019-05-09T21:41:56.751Z,28.83
2019-05-09T21:44:26.479Z,29.67
2019-05-09T21:46:56.348Z,30.03
2019-05-09T21:49:30.845Z,29.90
2019-05-09T21:52:02.016Z,28.50
2019-05-09T21:54:31.825Z,30.83
2019-05-09T21:57:01.465Z,29.67
2019-05-09T21:59:31.112Z,29.70
2019-05-09T22:02:01.325Z,31.40
2019-05-09T22:04:31.108Z,135.17
2019-05-09T22:07:02.406Z,137.80
2019-05-09T22:09:32.468Z,34.13
2019-05-09T22:12:02.138Z,32.17
2019-05-09T22:14:31.803Z,32.10
2019-05-09T22:17:03.133Z,31.40
2019-05-09T22:19:32.778Z,32.47
2019-05-09T22:22:02.430Z,32.10
2019-05-09T22:24:32.125Z,33.07
2019-05-09T22:27:01.777Z,32.93
2019-05-09T22:29:31.441Z,33.47
2019-05-09T22:32:01.115Z,33.43
2019-05-09T22:34:30.759Z,33.73
2019-05-09T22:37:00.644Z,33.50
2019-05-09T22:39:30.326Z,35.00
2019-05-09T22:42:01.028Z,32.83
2019-05-09T22:44:30.652Z,33.30
2019-05-09T22:47:00.374Z,33.37
2019-05-09T22:49:30.060Z,34.40
2019-05-09T22:51:59.811Z,118.00
2019-05-09T22:54:29.603Z,43.33
2019-05-09T22:56:59.412Z,34.97
2019-05-09T22:59:29.533Z,34.03
2019-05-09T23:01:59.270Z,35.13
2019-05-09T23:04:29.380Z,35.40
2019-05-09T23:06:59.043Z,34.10
2019-05-09T23:09:28.821Z,34.87
2019-05-09T23:11:58.821Z,35.20
2019-05-09T23:14:28.805Z,35.07
2019-05-09T23:17:00.044Z,35.60
2019-05-09T23:19:29.715Z,35.27
2019-05-09T23:22:00.465Z,33.87
2019-05-09T23:24:34.270Z,32.33
2019-05-09T23:27:04.241Z,35.10
2019-05-09T23:29:34.055Z,34.90
2019-05-09T23:32:21.448Z,36.27
2019-05-09T23:34:51.094Z,37.53
2019-05-09T23:37:20.732Z,35.93
2019-05-09T23:39:52.922Z,36.20
2019-05-09T23:42:22.621Z,36.90
2019-05-09T23:44:52.275Z,35.83
2019-05-09T23:47:22.136Z,35.93
2019-05-09T23:49:51.785Z,37.40
2019-05-09T23:52:21.423Z,35.70
2019-05-09T23:55:09.296Z,35.57
2019-05-09T23:57:56.431Z,35.73
